Time;durP1;ratioP1;P1;durP2;ratioP2;P2;SDS_P1;SDS_P2;PMS_P1;PMS_P2;Temp;Humidity;BMP_temperature;BMP_pressure;BME280_temperature;BME280_humidity;BME280_pressure;Samples;Min_cycle;Max_cycle;Signal;HPM_P1;HPM_P2
2023/12/12 00:01:24;;;;;;;22.57;3.43;;;8.30;99.90;;;;;;5074099;28;20176;-45
2023/12/12 00:03:53;;;;;;;13.60;3.17;;;8.30;99.90;;;;;;5074301;28;20256;-45
2023/12/12 00:09:41;;;;;;;15.70;3.80;;;8.40;99.90;;;;;;5074555;28;20249;-44
2023/12/12 00:12:09;;;;;;;15.03;3.20;;;8.30;99.90;;;;;;5073987;28;20549;-44
2023/12/12 00:14:35;;;;;;;15.63;3.27;;;8.30;99.90;;;;;;5073600;28;20189;-44
2023/12/12 00:20:24;;;;;;;22.70;3.50;;;8.30;99.90;;;;;;5073859;28;20580;-44
2023/12/12 00:23:08;;;;;;;20.10;3.43;;;8.30;99.90;;;;;;5073745;28;20183;-46
2023/12/12 00:25:37;;;;;;;21.03;3.57;;;8.30;99.90;;;;;;5073570;28;20652;-44
2023/12/12 00:28:05;;;;;;;19.27;2.97;;;8.20;99.90;;;;;;5073820;28;20189;-43
2023/12/12 00:30:30;;;;;;;20.90;4.37;;;8.20;99.90;;;;;;5056839;28;20238;-45
2023/12/12 00:33:03;;;;;;;19.00;4.03;;;8.20;99.90;;;;;;5074243;28;20585;-44
2023/12/12 00:35:29;;;;;;;17.67;4.00;;;8.20;99.90;;;;;;5056074;28;20232;-44
2023/12/12 00:37:57;;;;;;;24.23;4.17;;;8.20;99.90;;;;;;5069076;28;20298;-47
2023/12/12 00:40:24;;;;;;;23.97;3.00;;;8.10;99.90;;;;;;5055691;28;20226;-47
2023/12/12 00:42:50;;;;;;;19.60;3.90;;;8.10;99.90;;;;;;5055785;28;20197;-47
2023/12/12 00:45:22;;;;;;;18.90;4.03;;;8.10;99.90;;;;;;5073687;28;20171;-48
2023/12/12 00:47:48;;;;;;;18.60;3.17;;;8.10;99.90;;;;;;5055257;28;20206;-50
2023/12/12 00:50:15;;;;;;;21.30;3.70;;;8.10;99.90;;;;;;5073846;28;20570;-48
2023/12/12 00:52:42;;;;;;;21.77;3.70;;;8.10;99.90;;;;;;5073271;28;20294;-48
2023/12/12 00:55:09;;;;;;;19.73;3.63;;;8.00;99.90;;;;;;5073833;28;20180;-47
2023/12/12 00:57:35;;;;;;;16.33;3.03;;;8.00;99.90;;;;;;5038968;28;20207;-47
2023/12/12 01:00:05;;;;;;;20.67;3.30;;;8.00;99.90;;;;;;5073228;28;20195;-46
2023/12/12 01:02:34;;;;;;;17.40;3.87;;;8.00;99.90;;;;;;5073257;28;20226;-47
2023/12/12 01:05:00;;;;;;;20.13;4.03;;;7.90;99.90;;;;;;5073442;28;20179;-47
2023/12/12 01:07:26;;;;;;;15.43;3.37;;;7.90;99.90;;;;;;5073223;28;20183;-48
2023/12/12 01:09:53;;;;;;;15.80;3.47;;;7.90;99.90;;;;;;5073132;28;20244;-48
2023/12/12 01:12:19;;;;;;;23.17;4.73;;;7.90;99.90;;;;;;5073107;28;20752;-47
2023/12/12 01:14:48;;;;;;;29.03;4.13;;;7.80;99.90;;;;;;5073664;28;20202;-47
2023/12/12 01:17:14;;;;;;;21.63;3.87;;;7.80;99.90;;;;;;5072365;28;20187;-48
2023/12/12 01:19:40;;;;;;;17.33;3.43;;;7.80;99.90;;;;;;5073282;28;20207;-48
2023/12/12 01:22:06;;;;;;;17.47;3.80;;;7.80;99.90;;;;;;5073436;28;20168;-50
2023/12/12 01:24:32;;;;;;;18.83;3.30;;;7.80;99.90;;;;;;5073321;28;20175;-48
2023/12/12 01:26:58;;;;;;;26.23;3.87;;;7.80;99.90;;;;;;5074973;28;20171;-48
2023/12/12 01:29:24;;;;;;;22.67;4.03;;;7.80;99.90;;;;;;5058960;28;20204;-48
2023/12/12 01:31:50;;;;;;;25.87;3.97;;;7.80;99.90;;;;;;5076836;28;20207;-47
2023/12/12 01:34:19;;;;;;;24.40;3.90;;;7.80;99.90;;;;;;5077750;28;20267;-48
2023/12/12 01:36:46;;;;;;;21.50;4.77;;;7.80;99.90;;;;;;5077133;28;20281;-47
2023/12/12 01:39:12;;;;;;;23.73;4.50;;;7.80;99.90;;;;;;5076643;28;20258;-47
2023/12/12 01:41:46;;;;;;;23.20;4.37;;;7.80;99.90;;;;;;5076713;28;20572;-48
2023/12/12 01:44:15;;;;;;;27.40;4.87;;;7.70;99.90;;;;;;5077028;28;20159;-49
2023/12/12 01:46:47;;;;;;;21.13;3.80;;;7.80;99.90;;;;;;5076635;28;20168;-48
2023/12/12 01:49:13;;;;;;;22.37;3.77;;;7.70;99.90;;;;;;5076552;28;20191;-48
2023/12/12 01:51:43;;;;;;;23.03;3.90;;;7.70;99.90;;;;;;5076320;28;20195;-47
2023/12/12 01:54:15;;;;;;;25.00;4.10;;;7.60;99.90;;;;;;5076639;28;20262;-47
2023/12/12 01:56:42;;;;;;;22.53;5.20;;;7.60;99.90;;;;;;5058760;28;20577;-48
2023/12/12 01:59:09;;;;;;;20.73;3.87;;;7.50;99.90;;;;;;5076585;28;20218;-47
2023/12/12 02:01:35;;;;;;;21.37;5.23;;;7.40;99.90;;;;;;5058961;28;20253;-48
2023/12/12 02:04:02;;;;;;;24.63;6.10;;;7.40;99.90;;;;;;5076372;28;20647;-48
2023/12/12 02:06:28;;;;;;;27.20;6.13;;;7.30;99.90;;;;;;5057922;28;20194;-47
2023/12/12 02:08:55;;;;;;;20.77;5.13;;;7.20;99.90;;;;;;5076387;28;20191;-49
2023/12/12 02:11:21;;;;;;;18.73;5.23;;;7.20;99.90;;;;;;5076223;28;20216;-48
2023/12/12 02:13:48;;;;;;;17.70;5.37;;;7.10;99.90;;;;;;5076056;28;20183;-48
2023/12/12 02:16:14;;;;;;;16.73;4.83;;;7.00;99.90;;;;;;5076114;28;20179;-47
2023/12/12 02:18:43;;;;;;;15.43;3.40;;;7.00;99.90;;;;;;5076454;28;20207;-48
2023/12/12 02:21:21;;;;;;;18.77;3.70;;;6.90;99.90;;;;;;5058090;28;20182;-48
2023/12/12 02:23:47;;;;;;;18.00;3.80;;;6.90;99.90;;;;;;5076256;28;20168;-49
2023/12/12 02:26:16;;;;;;;12.27;3.17;;;7.80;99.90;;;;;;5075867;28;20182;-49
2023/12/12 02:28:42;;;;;;;17.10;3.20;;;6.90;99.90;;;;;;5057757;28;20663;-49
2023/12/12 02:31:09;;;;;;;20.40;3.50;;;6.90;99.90;;;;;;5058433;28;20282;-46
2023/12/12 02:33:45;;;;;;;20.33;4.27;;;6.90;99.90;;;;;;5058261;28;20186;-47
2023/12/12 02:36:11;;;;;;;12.80;3.00;;;6.90;99.90;;;;;;5057817;28;20248;-49
2023/12/12 02:38:38;;;;;;;16.17;2.97;;;6.90;99.90;;;;;;5074753;28;20207;-47
2023/12/12 02:44:27;;;;;;;24.00;3.90;;;6.90;99.90;;;;;;5075849;28;20221;-47
2023/12/12 02:46:53;;;;;;;19.80;3.70;;;7.00;99.90;;;;;;5075871;28;20233;-47
2023/12/12 02:49:18;;;;;;;17.50;3.70;;;7.00;99.90;;;;;;5075551;28;20278;-49
2023/12/12 02:51:49;;;;;;;15.67;3.47;;;7.00;99.90;;;;;;5057823;28;20195;-49
2023/12/12 02:54:15;;;;;;;28.17;4.87;;;7.10;99.90;;;;;;5076248;28;20168;-49
2023/12/12 02:56:45;;;;;;;20.53;3.63;;;7.10;99.90;;;;;;5075880;28;20205;-45
2023/12/12 02:59:13;;;;;;;16.83;3.93;;;7.10;99.90;;;;;;5075431;28;20273;-44
2023/12/12 03:01:39;;;;;;;22.77;4.00;;;7.10;99.90;;;;;;5075552;28;20175;-46
2023/12/12 03:04:04;;;;;;;23.50;3.63;;;7.10;99.90;;;;;;5075771;28;20176;-47
2023/12/12 03:06:30;;;;;;;17.57;3.40;;;7.10;99.90;;;;;;5075520;28;20229;-45
2023/12/12 03:08:56;;;;;;;19.63;4.20;;;7.10;99.90;;;;;;5057237;28;20203;-43
2023/12/12 03:11:25;;;;;;;24.53;4.57;;;7.10;99.90;;;;;;5057167;28;20648;-44
2023/12/12 03:13:54;;;;;;;21.00;4.77;;;7.10;99.90;;;;;;5056978;28;20656;-44
2023/12/12 03:16:22;;;;;;;19.97;4.13;;;7.10;99.90;;;;;;5074951;28;20177;-45
2023/12/12 03:18:49;;;;;;;18.00;3.70;;;7.10;99.90;;;;;;5074990;28;20220;-44
2023/12/12 03:21:15;;;;;;;20.90;3.90;;;7.10;99.90;;;;;;5074961;28;20582;-43
2023/12/12 03:23:47;;;;;;;28.53;4.73;;;7.10;99.90;;;;;;5074872;28;20179;-45
2023/12/12 03:26:14;;;;;;;19.73;4.30;;;7.20;99.90;;;;;;5075318;28;20180;-45
2023/12/12 03:28:40;;;;;;;22.43;4.10;;;7.20;99.90;;;;;;5057063;28;20183;-44
2023/12/12 03:31:08;;;;;;;25.07;4.77;;;7.10;99.90;;;;;;5074941;28;20232;-45
2023/12/12 03:33:33;;;;;;;27.30;4.37;;;7.20;99.90;;;;;;5056529;28;20275;-44
2023/12/12 03:35:59;;;;;;;20.83;4.87;;;7.20;99.90;;;;;;5074921;28;20322;-44
2023/12/12 03:38:31;;;;;;;30.20;4.63;;;7.10;99.90;;;;;;5075012;28;20682;-46
2023/12/12 03:40:56;;;;;;;25.83;4.40;;;7.10;99.90;;;;;;5074545;28;20191;-45
2023/12/12 03:43:22;;;;;;;18.93;3.67;;;7.20;99.90;;;;;;5056546;28;20215;-45
2023/12/12 03:45:48;;;;;;;18.13;4.73;;;7.20;99.90;;;;;;5074428;28;20536;-46
2023/12/12 03:48:13;;;;;;;23.13;4.00;;;7.20;99.90;;;;;;5074586;28;20179;-46
2023/12/12 03:50:39;;;;;;;22.53;3.93;;;7.20;99.90;;;;;;5056415;28;20741;-44
2023/12/12 03:53:09;;;;;;;19.23;4.10;;;7.20;99.90;;;;;;5074516;28;20176;-45
2023/12/12 03:55:35;;;;;;;19.37;3.87;;;7.20;99.90;;;;;;5074246;28;20644;-45
2023/12/12 03:58:00;;;;;;;21.67;4.30;;;7.10;99.90;;;;;;5073988;28;20253;-44
2023/12/12 04:01:15;;;;;;;17.73;3.37;;;7.20;99.90;;;;;;5074106;28;20222;-44
2023/12/12 04:03:42;;;;;;;19.47;3.90;;;7.10;99.90;;;;;;5074760;28;20258;-44
2023/12/12 04:09:31;;;;;;;17.03;3.67;;;7.00;99.90;;;;;;5073971;28;20222;-44
2023/12/12 04:12:02;;;;;;;30.33;5.63;;;7.00;99.90;;;;;;5056069;28;20186;-44
2023/12/12 04:14:30;;;;;;;17.27;4.50;;;6.90;99.90;;;;;;5074967;28;20190;-46
2023/12/12 04:16:57;;;;;;;18.57;4.10;;;6.90;99.90;;;;;;5074083;28;20226;-44
2023/12/12 04:19:23;;;;;;;17.97;4.40;;;6.80;99.90;;;;;;5055924;28;20703;-43
2023/12/12 04:21:49;;;;;;;18.80;4.20;;;6.80;99.90;;;;;;5074299;28;20174;-45
2023/12/12 04:24:17;;;;;;;16.93;4.40;;;6.70;99.90;;;;;;5074041;28;20176;-46
2023/12/12 04:26:43;;;;;;;16.77;3.87;;;6.70;99.90;;;;;;5073641;28;20202;-44
2023/12/12 04:29:09;;;;;;;23.90;5.23;;;6.70;99.90;;;;;;5056142;28;20223;-44
2023/12/12 04:31:53;;;;;;;18.50;4.57;;;6.60;99.90;;;;;;5055712;28;20186;-46
2023/12/12 04:34:20;;;;;;;10.93;3.80;;;6.60;99.90;;;;;;5056169;28;20194;-44
2023/12/12 04:36:45;;;;;;;14.53;3.57;;;6.50;99.90;;;;;;5055887;28;20231;-43
2023/12/12 04:39:24;;;;;;;18.63;4.57;;;6.50;99.90;;;;;;5073287;28;20696;-44
2023/12/12 04:41:50;;;;;;;17.40;4.33;;;6.50;99.90;;;;;;5073769;28;20186;-43
2023/12/12 04:44:17;;;;;;;13.13;3.97;;;6.40;99.90;;;;;;5055748;28;20228;-47
2023/12/12 04:46:43;;;;;;;19.57;3.57;;;6.40;99.90;;;;;;5073493;28;20580;-45
2023/12/12 04:49:16;;;;;;;16.53;3.63;;;6.40;99.90;;;;;;5055732;28;20274;-44
2023/12/12 04:51:42;;;;;;;14.50;3.30;;;6.40;99.90;;;;;;5071286;28;20190;-45
2023/12/12 04:54:09;;;;;;;14.87;3.10;;;6.50;99.90;;;;;;5056372;28;20187;-43
2023/12/12 04:57:25;;;;;;;15.83;4.20;;;6.50;99.90;;;;;;5073248;28;20637;-45
2023/12/12 04:59:53;;;;;;;16.50;3.40;;;6.50;99.90;;;;;;5073426;28;20233;-45
2023/12/12 05:02:20;;;;;;;19.03;4.27;;;6.50;99.90;;;;;;5072747;28;20207;-45
2023/12/12 05:04:47;;;;;;;18.57;3.57;;;6.50;99.90;;;;;;5073305;28;20609;-44
2023/12/12 05:07:15;;;;;;;13.57;3.27;;;6.50;99.90;;;;;;5073435;28;20666;-45
2023/12/12 05:09:41;;;;;;;15.03;3.77;;;6.50;99.90;;;;;;5056041;28;20283;-46
2023/12/12 05:12:10;;;;;;;16.00;3.57;;;6.50;99.90;;;;;;5055909;28;20184;-44
2023/12/12 05:14:36;;;;;;;18.60;3.70;;;6.50;99.90;;;;;;5073139;28;20201;-45
2023/12/12 05:17:02;;;;;;;21.30;3.70;;;6.50;99.90;;;;;;5073464;28;20549;-46
2023/12/12 05:19:29;;;;;;;16.87;3.40;;;6.50;99.90;;;;;;5072773;28;20251;-43
2023/12/12 05:21:58;;;;;;;17.83;3.40;;;6.50;99.90;;;;;;5073117;28;20186;-44
2023/12/12 05:25:05;;;;;;;14.83;3.17;;;6.40;99.90;;;;;;5073422;28;20179;-45
2023/12/12 05:27:32;;;;;;;16.60;3.40;;;6.40;99.90;;;;;;5072430;28;20274;-44
2023/12/12 05:29:57;;;;;;;13.30;3.43;;;6.30;99.90;;;;;;5073444;28;20200;-45
2023/12/12 05:32:23;;;;;;;14.60;2.80;;;6.30;99.90;;;;;;5055090;28;20183;-45
2023/12/12 05:34:56;;;;;;;16.27;2.83;;;6.20;99.90;;;;;;5072972;28;20254;-44
2023/12/12 05:37:22;;;;;;;15.10;3.40;;;6.10;99.90;;;;;;5055406;28;20172;-43
2023/12/12 05:39:48;;;;;;;13.93;2.83;;;6.10;99.90;;;;;;5073188;28;20236;-45
2023/12/12 05:42:13;;;;;;;11.23;3.10;;;6.00;99.90;;;;;;5072902;28;20568;-45
2023/12/12 05:44:39;;;;;;;11.67;3.20;;;6.00;99.90;;;;;;5055306;28;20187;-44
2023/12/12 05:47:11;;;;;;;13.53;3.33;;;6.00;99.90;;;;;;5077419;28;20179;-45
2023/12/12 05:49:41;;;;;;;17.07;3.57;;;6.00;99.90;;;;;;5078086;28;20297;-45
2023/12/12 05:52:10;;;;;;;10.63;2.70;;;5.90;99.90;;;;;;5077884;28;20191;-43
2023/12/12 05:54:36;;;;;;;21.53;4.37;;;5.90;99.90;;;;;;5043635;28;20248;-43
2023/12/12 05:57:03;;;;;;;13.60;2.90;;;5.90;99.90;;;;;;5073121;28;20263;-43
2023/12/12 05:59:32;;;;;;;14.80;3.30;;;5.90;99.90;;;;;;5072587;28;20292;-43
2023/12/12 06:02:03;;;;;;;15.07;2.87;;;5.90;99.90;;;;;;5072824;28;20194;-43
2023/12/12 06:04:29;;;;;;;22.13;3.90;;;5.90;99.90;;;;;;5073019;28;20178;-43
2023/12/12 06:06:55;;;;;;;12.10;2.73;;;5.90;99.90;;;;;;5072984;28;20702;-46
2023/12/12 06:09:21;;;;;;;15.30;3.03;;;5.90;99.90;;;;;;5055148;28;20287;-44
2023/12/12 06:11:46;;;;;;;11.90;2.80;;;5.90;99.90;;;;;;5072854;28;20187;-46
2023/12/12 06:14:12;;;;;;;15.07;3.00;;;6.00;99.90;;;;;;5074652;28;20266;-44
2023/12/12 06:16:41;;;;;;;10.20;2.90;;;6.00;99.90;;;;;;5076105;28;20207;-43
2023/12/12 06:19:07;;;;;;;15.00;2.97;;;6.00;99.90;;;;;;5075989;28;20292;-45
2023/12/12 06:21:35;;;;;;;17.60;3.67;;;6.00;99.90;;;;;;5076108;28;20178;-45
2023/12/12 06:24:04;;;;;;;16.10;3.50;;;6.10;99.90;;;;;;5076232;28;20187;-46
2023/12/12 06:26:30;;;;;;;16.67;3.43;;;6.20;99.90;;;;;;5076129;28;20537;-47
2023/12/12 06:28:56;;;;;;;20.40;3.83;;;6.20;99.90;;;;;;5058087;28;20717;-43
2023/12/12 06:31:23;;;;;;;21.30;3.10;;;6.30;99.90;;;;;;5076141;28;20214;-46
2023/12/12 06:33:50;;;;;;;18.60;3.70;;;6.30;99.90;;;;;;5058401;28;20187;-44
2023/12/12 06:36:19;;;;;;;23.47;3.63;;;6.30;99.90;;;;;;5075468;28;20549;-45
2023/12/12 06:38:50;;;;;;;22.50;3.47;;;6.40;99.90;;;;;;5075905;28;20207;-44
2023/12/12 06:41:20;;;;;;;17.43;3.30;;;6.40;99.90;;;;;;5075708;28;20175;-45
2023/12/12 06:44:00;;;;;;;15.60;3.27;;;6.50;99.90;;;;;;5076094;28;20223;-44
2023/12/12 06:46:25;;;;;;;18.43;3.20;;;6.50;99.90;;;;;;5076154;28;20568;-43
2023/12/12 06:48:51;;;;;;;18.27;2.73;;;6.60;99.90;;;;;;5057738;28;20203;-44
2023/12/12 06:51:17;;;;;;;15.17;2.63;;;6.60;99.90;;;;;;5075600;28;20237;-45
2023/12/12 06:53:44;;;;;;;19.73;3.53;;;6.60;99.90;;;;;;5075501;28;20199;-44
2023/12/12 06:56:35;;;;;;;22.67;3.73;;;6.70;99.90;;;;;;5057954;28;20195;-45
2023/12/12 06:59:02;;;;;;;17.93;2.87;;;6.70;99.90;;;;;;5075579;28;20211;-44
2023/12/12 07:01:27;;;;;;;16.37;3.17;;;6.80;99.90;;;;;;5057729;28;20241;-45
2023/12/12 07:03:53;;;;;;;20.00;3.63;;;6.70;99.90;;;;;;5057990;28;20182;-44
2023/12/12 07:06:20;;;;;;;19.07;3.20;;;6.80;99.90;;;;;;5057711;28;20215;-45
2023/12/12 07:08:50;;;;;;;22.13;3.53;;;6.80;99.90;;;;;;5075278;28;20195;-44
2023/12/12 07:11:16;;;;;;;20.17;5.03;;;6.80;99.90;;;;;;5056694;28;20304;-44
2023/12/12 07:13:45;;;;;;;16.77;3.50;;;6.80;99.90;;;;;;5074392;28;20561;-46
2023/12/12 07:16:11;;;;;;;22.60;3.10;;;6.90;99.90;;;;;;5057949;28;20187;-44
2023/12/12 07:18:38;;;;;;;22.63;3.23;;;6.80;99.90;;;;;;5074938;28;20694;-45
2023/12/12 07:21:05;;;;;;;20.33;3.47;;;6.80;99.90;;;;;;5075174;28;20229;-44
2023/12/12 07:23:38;;;;;;;11.70;2.67;;;6.80;99.90;;;;;;5075289;28;20262;-45
2023/12/12 07:26:09;;;;;;;15.53;4.33;;;6.80;99.90;;;;;;5074982;28;20191;-46
2023/12/12 07:28:35;;;;;;;22.90;4.43;;;6.80;99.90;;;;;;5075769;28;20518;-44
2023/12/12 07:31:02;;;;;;;22.77;3.97;;;6.80;99.90;;;;;;5074900;28;20183;-44
2023/12/12 07:33:31;;;;;;;21.97;4.20;;;6.80;99.90;;;;;;5074711;28;20187;-44
2023/12/12 07:36:03;;;;;;;23.37;3.80;;;6.80;99.90;;;;;;5074973;28;20252;-43
2023/12/12 07:38:28;;;;;;;15.90;3.60;;;6.80;99.90;;;;;;5073657;28;20620;-45
2023/12/12 07:40:55;;;;;;;25.03;3.57;;;6.80;99.90;;;;;;5074652;28;20210;-43
2023/12/12 07:43:23;;;;;;;23.93;4.50;;;6.90;99.90;;;;;;5074827;28;20606;-43
2023/12/12 07:45:49;;;;;;;22.83;3.90;;;6.90;99.90;;;;;;5074533;28;20657;-44
2023/12/12 07:48:18;;;;;;;20.17;4.33;;;6.90;99.90;;;;;;5074746;28;20191;-44
2023/12/12 07:50:46;;;;;;;21.93;3.50;;;6.90;99.90;;;;;;5074515;28;20215;-44
2023/12/12 07:53:17;;;;;;;20.77;5.13;;;7.00;99.90;;;;;;5075328;28;20191;-44
2023/12/12 07:55:43;;;;;;;24.37;3.53;;;7.00;99.90;;;;;;5074045;28;20198;-45
2023/12/12 07:58:10;;;;;;;24.20;4.77;;;7.10;99.90;;;;;;5074465;28;20211;-45
2023/12/12 08:00:35;;;;;;;23.47;4.33;;;7.10;99.90;;;;;;5074397;28;20258;-44
2023/12/12 08:03:08;;;;;;;31.53;3.97;;;7.10;99.90;;;;;;5074133;28;20212;-44
2023/12/12 08:05:36;;;;;;;20.60;4.20;;;7.20;99.90;;;;;;5074128;28;20171;-44
2023/12/12 08:08:04;;;;;;;20.07;3.90;;;7.20;99.90;;;;;;5073421;28;20228;-43
2023/12/12 08:10:30;;;;;;;24.20;3.90;;;7.20;99.90;;;;;;5073999;28;20203;-43
2023/12/12 08:12:59;;;;;;;17.50;3.63;;;7.20;99.90;;;;;;5073839;28;20198;-43
2023/12/12 08:15:25;;;;;;;25.50;3.80;;;7.20;99.90;;;;;;5073911;28;20413;-46
2023/12/12 08:17:50;;;;;;;22.37;3.70;;;7.30;99.90;;;;;;5073822;28;20289;-44
2023/12/12 08:20:19;;;;;;;17.87;3.63;;;7.40;99.90;;;;;;5073880;28;20215;-43
2023/12/12 08:22:48;;;;;;;19.30;3.50;;;7.40;99.90;;;;;;5074641;28;20506;-45
2023/12/12 08:25:14;;;;;;;16.60;3.83;;;7.50;99.90;;;;;;5073986;28;20245;-43
2023/12/12 08:27:42;;;;;;;24.67;4.57;;;7.50;99.90;;;;;;5073761;28;20171;-43
2023/12/12 08:30:08;;;;;;;20.70;3.93;;;7.60;99.90;;;;;;5055907;28;20549;-44
2023/12/12 08:32:38;;;;;;;26.00;4.63;;;7.60;99.90;;;;;;5056369;28;20183;-44
2023/12/12 08:35:06;;;;;;;16.43;3.03;;;7.70;99.90;;;;;;5074110;28;20202;-43
2023/12/12 08:37:32;;;;;;;21.27;3.83;;;7.70;99.90;;;;;;5072914;28;20178;-43
2023/12/12 08:39:58;;;;;;;21.13;3.60;;;7.80;99.90;;;;;;5074341;28;20199;-44
2023/12/12 08:42:27;;;;;;;13.70;3.07;;;7.80;99.90;;;;;;5073538;28;20554;-44
2023/12/12 08:44:53;;;;;;;12.73;3.20;;;7.90;99.90;;;;;;5074034;28;20199;-43
2023/12/12 08:47:21;;;;;;;13.57;3.10;;;7.90;99.90;;;;;;5073154;28;20230;-43
2023/12/12 08:49:47;;;;;;;17.77;3.30;;;7.90;99.90;;;;;;5074207;28;20286;-45
2023/12/12 08:52:14;;;;;;;15.27;3.80;;;8.00;99.90;;;;;;5073634;28;20604;-43
2023/12/12 08:54:43;;;;;;;17.13;3.27;;;8.10;99.90;;;;;;5073635;28;20271;-43
2023/12/12 08:57:21;;;;;;;16.70;3.27;;;8.10;99.90;;;;;;5055824;28;20180;-43
2023/12/12 08:59:46;;;;;;;15.60;3.33;;;8.10;99.90;;;;;;5073249;28;20207;-44
2023/12/12 09:02:17;;;;;;;18.00;3.87;;;8.10;99.90;;;;;;5055354;28;20218;-43
2023/12/12 09:04:42;;;;;;;17.77;3.97;;;8.20;99.90;;;;;;5072531;28;20676;-43
2023/12/12 09:07:49;;;;;;;24.30;4.00;;;8.20;99.90;;;;;;5073326;28;20179;-43
2023/12/12 09:10:15;;;;;;;12.37;2.93;;;8.30;99.90;;;;;;5073550;28;20210;-44
2023/12/12 09:12:42;;;;;;;19.10;3.33;;;8.30;99.90;;;;;;5073291;28;20546;-43
2023/12/12 09:15:08;;;;;;;12.47;2.77;;;8.40;99.90;;;;;;5073189;28;20186;-44
2023/12/12 09:17:33;;;;;;;9.87;3.53;;;8.40;99.90;;;;;;5073596;28;20172;-43
2023/12/12 09:20:04;;;;;;;16.47;3.30;;;8.50;99.90;;;;;;5055653;28;20208;-45
2023/12/12 09:22:31;;;;;;;9.07;3.03;;;8.50;99.90;;;;;;5073187;28;20211;-43
2023/12/12 09:24:58;;;;;;;14.77;3.03;;;8.60;99.90;;;;;;5073402;28;20196;-45
2023/12/12 09:27:27;;;;;;;8.53;3.10;;;8.60;99.90;;;;;;5072985;28;20221;-45
2023/12/12 09:30:19;;;;;;;8.90;2.07;;;8.70;99.90;;;;;;5073833;28;20253;-43
2023/12/12 09:32:48;;;;;;;16.27;2.73;;;8.80;99.90;;;;;;5073312;28;20175;-44
2023/12/12 09:38:36;;;;;;;9.80;2.60;;;8.80;99.90;;;;;;5072969;28;20198;-45
2023/12/12 09:41:02;;;;;;;12.57;3.20;;;8.90;99.90;;;;;;5072965;28;20660;-44
2023/12/12 09:43:30;;;;;;;14.37;3.27;;;9.00;99.90;;;;;;5073266;28;20182;-44
2023/12/12 09:45:59;;;;;;;11.50;3.60;;;9.00;99.90;;;;;;5055281;28;20191;-45
2023/12/12 09:48:25;;;;;;;18.67;3.63;;;9.00;99.90;;;;;;5074783;28;20649;-45
2023/12/12 09:50:54;;;;;;;15.37;3.33;;;9.10;99.90;;;;;;5076688;28;20289;-44
2023/12/12 09:53:20;;;;;;;10.30;3.20;;;9.10;99.90;;;;;;5076936;28;20188;-43
2023/12/12 09:55:47;;;;;;;11.27;3.33;;;9.10;99.90;;;;;;5059060;28;20186;-43
2023/12/12 09:58:12;;;;;;;13.27;3.27;;;9.20;99.90;;;;;;5076809;28;20196;-44
2023/12/12 10:00:38;;;;;;;13.53;3.00;;;9.20;99.90;;;;;;5058639;28;20691;-44
2023/12/12 10:03:07;;;;;;;17.27;3.13;;;9.20;99.90;;;;;;5077102;28;20213;-43
2023/12/12 10:05:39;;;;;;;12.87;3.50;;;9.20;99.90;;;;;;5076516;28;20185;-44
2023/12/12 10:08:05;;;;;;;14.00;3.30;;;9.30;99.90;;;;;;5059395;28;20183;-43
2023/12/12 10:10:32;;;;;;;16.37;3.33;;;9.30;99.90;;;;;;5076579;28;20223;-44
2023/12/12 10:12:57;;;;;;;10.40;2.50;;;9.40;99.90;;;;;;5077262;28;20177;-44
2023/12/12 10:15:27;;;;;;;9.07;3.30;;;9.40;99.90;;;;;;5076779;28;20210;-44
2023/12/12 10:18:02;;;;;;;13.77;3.23;;;9.40;99.90;;;;;;5076875;28;20225;-42
2023/12/12 10:20:31;;;;;;;14.50;3.60;;;9.40;99.90;;;;;;5076812;28;20202;-42
2023/12/12 10:23:04;;;;;;;9.40;2.47;;;9.50;99.90;;;;;;5077508;28;20202;-46
2023/12/12 10:25:32;;;;;;;11.97;2.67;;;9.40;99.90;;;;;;5058606;28;20203;-44
2023/12/12 10:27:59;;;;;;;9.43;2.00;;;9.50;99.90;;;;;;5058611;28;20625;-43
2023/12/12 10:30:26;;;;;;;8.07;2.10;;;9.50;99.90;;;;;;5075891;28;20248;-42
2023/12/12 10:32:55;;;;;;;18.67;3.10;;;9.50;99.90;;;;;;5058464;28;20270;-42
2023/12/12 10:35:22;;;;;;;11.40;2.83;;;9.50;99.90;;;;;;5076178;28;20183;-43
2023/12/12 10:37:48;;;;;;;7.40;2.40;;;9.50;99.90;;;;;;5058645;28;20213;-44
2023/12/12 10:40:15;;;;;;;9.47;2.00;;;9.50;99.90;;;;;;5075691;28;20689;-43
2023/12/12 10:42:42;;;;;;;9.10;2.33;;;9.50;99.90;;;;;;5057772;28;20192;-44
2023/12/12 10:45:14;;;;;;;10.07;2.33;;;9.50;99.90;;;;;;5057932;28;20235;-42
2023/12/12 10:47:46;;;;;;;11.93;2.93;;;9.50;99.90;;;;;;5057768;28;20171;-42
2023/12/12 10:50:14;;;;;;;10.40;2.70;;;9.50;99.90;;;;;;5058674;28;20232;-43
2023/12/12 10:52:40;;;;;;;12.27;2.77;;;9.50;99.90;;;;;;5075122;28;20222;-41
2023/12/12 10:55:10;;;;;;;6.23;2.13;;;9.50;99.90;;;;;;5075758;28;20180;-43
2023/12/12 10:57:41;;;;;;;11.60;2.93;;;9.50;99.90;;;;;;5075766;28;20253;-43
2023/12/12 11:00:11;;;;;;;10.43;2.30;;;9.50;99.90;;;;;;5040323;28;20213;-43
2023/12/12 11:02:39;;;;;;;12.70;3.03;;;9.50;99.90;;;;;;5058153;28;20328;-44
2023/12/12 11:05:13;;;;;;;12.50;2.80;;;9.50;99.90;;;;;;5075348;28;20195;-44
2023/12/12 11:07:46;;;;;;;19.00;2.60;;;9.50;99.90;;;;;;5075174;28;20563;-44
2023/12/12 11:10:14;;;;;;;15.03;2.37;;;9.40;99.90;;;;;;5057744;28;20218;-44
2023/12/12 11:12:57;;;;;;;8.83;2.90;;;9.50;99.90;;;;;;5075156;28;20240;-45
2023/12/12 11:15:25;;;;;;;8.73;2.30;;;9.50;99.90;;;;;;5075436;28;20163;-46
2023/12/12 11:17:52;;;;;;;6.33;1.50;;;9.50;99.90;;;;;;5057070;28;20191;-47
2023/12/12 11:20:19;;;;;;;8.20;2.10;;;9.50;99.90;;;;;;5057103;28;20207;-43
2023/12/12 11:22:49;;;;;;;9.13;2.80;;;9.60;99.90;;;;;;5075882;28;20530;-44
2023/12/12 11:25:19;;;;;;;6.33;2.10;;;9.50;99.90;;;;;;5074924;28;20175;-44
2023/12/12 11:27:59;;;;;;;14.83;2.53;;;9.50;99.90;;;;;;5074921;28;20170;-45
2023/12/12 11:30:39;;;;;;;5.20;2.13;;;9.50;99.90;;;;;;5074726;28;20202;-45
2023/12/12 11:33:12;;;;;;;4.87;2.40;;;9.50;99.90;;;;;;5074071;28;20208;-43
2023/12/12 11:35:40;;;;;;;7.43;2.30;;;9.50;99.90;;;;;;5074707;28;20156;-44
2023/12/12 11:38:27;;;;;;;5.93;2.10;;;9.40;99.90;;;;;;5074678;28;20204;-45
2023/12/12 11:41:11;;;;;;;10.03;2.40;;;9.40;99.90;;;;;;5056130;28;20584;-44
2023/12/12 11:43:39;;;;;;;7.63;2.03;;;9.40;99.90;;;;;;5074467;28;20207;-44
2023/12/12 11:46:21;;;;;;;13.23;3.00;;;9.30;99.90;;;;;;5074692;28;20180;-45
2023/12/12 11:48:47;;;;;;;10.53;2.60;;;9.30;99.90;;;;;;5074599;28;20236;-45
2023/12/12 11:51:41;;;;;;;7.37;2.23;;;9.40;99.90;;;;;;5074309;28;20179;-45
2023/12/12 11:54:20;;;;;;;10.47;2.53;;;9.40;99.90;;;;;;5074626;28;20195;-45
2023/12/12 11:56:46;;;;;;;9.50;2.43;;;9.40;99.90;;;;;;5074366;28;20532;-45
2023/12/12 11:59:12;;;;;;;9.77;2.90;;;9.40;99.90;;;;;;5056368;28;20210;-45
2023/12/12 12:01:37;;;;;;;5.90;2.17;;;9.40;99.90;;;;;;5074232;28;20307;-45
2023/12/12 12:04:05;;;;;;;7.20;2.90;;;9.40;99.90;;;;;;5056309;28;20666;-46
2023/12/12 12:06:31;;;;;;;7.03;2.57;;;9.40;99.90;;;;;;5074433;28;20171;-44
2023/12/12 12:09:05;;;;;;;5.83;2.50;;;9.30;99.90;;;;;;5074433;28;20222;-45
2023/12/12 12:11:39;;;;;;;9.37;3.07;;;9.40;99.90;;;;;;5073319;28;20194;-45
2023/12/12 12:14:05;;;;;;;12.37;2.63;;;9.40;99.90;;;;;;5074576;28;20232;-45
2023/12/12 12:16:30;;;;;;;5.83;2.63;;;9.40;99.90;;;;;;5056830;28;20179;-45
2023/12/12 12:18:56;;;;;;;11.10;2.57;;;9.40;99.90;;;;;;5072916;28;20257;-45
2023/12/12 12:21:26;;;;;;;8.50;2.40;;;9.40;99.90;;;;;;5073786;28;20240;-44
2023/12/12 12:23:54;;;;;;;8.10;2.60;;;9.40;99.90;;;;;;5073669;28;20175;-46
2023/12/12 12:26:21;;;;;;;12.37;2.87;;;9.40;99.90;;;;;;5056277;28;20185;-45
2023/12/12 12:28:57;;;;;;;8.33;2.60;;;9.40;99.90;;;;;;5055823;28;20187;-45
2023/12/12 12:31:34;;;;;;;8.33;2.90;;;9.40;99.90;;;;;;5074137;28;20179;-46
2023/12/12 12:34:24;;;;;;;10.97;3.13;;;9.40;99.90;;;;;;5073958;28;20253;-47
2023/12/12 12:36:51;;;;;;;6.17;2.57;;;9.40;99.90;;;;;;5073814;28;20249;-46
2023/12/12 12:39:18;;;;;;;7.27;2.90;;;9.40;99.90;;;;;;5073739;28;20221;-48
2023/12/12 12:45:31;;;;;;;13.70;2.83;;;9.40;99.90;;;;;;5073676;28;20174;-46
2023/12/12 12:47:57;;;;;;;9.97;2.60;;;9.40;99.90;;;;;;5073403;28;20194;-46
2023/12/12 12:50:23;;;;;;;9.90;3.03;;;9.40;99.90;;;;;;5073555;28;20656;-46
2023/12/12 12:53:02;;;;;;;7.57;2.70;;;9.40;99.90;;;;;;5074054;28;20527;-47
2023/12/12 12:55:27;;;;;;;9.13;2.53;;;9.40;99.90;;;;;;5056472;28;20174;-46
2023/12/12 12:57:53;;;;;;;10.10;2.97;;;9.50;99.90;;;;;;5055343;28;20201;-46
2023/12/12 13:00:19;;;;;;;11.57;2.83;;;9.50;99.90;;;;;;5073243;28;20192;-45
2023/12/12 13:02:45;;;;;;;6.87;2.20;;;9.50;99.90;;;;;;5073316;28;20175;-49
2023/12/12 13:05:17;;;;;;;7.47;3.00;;;9.50;99.90;;;;;;5055436;28;20259;-45
2023/12/12 13:07:43;;;;;;;9.70;2.17;;;9.50;99.90;;;;;;5056082;28;20210;-45
2023/12/12 13:10:10;;;;;;;12.17;2.67;;;9.50;99.90;;;;;;5073433;28;20215;-45
2023/12/12 13:15:58;;;;;;;8.47;2.63;;;9.50;99.90;;;;;;5073249;28;20243;-47
2023/12/12 13:18:24;;;;;;;10.93;2.53;;;9.50;99.90;;;;;;5073332;28;20292;-46
2023/12/12 13:20:50;;;;;;;7.67;2.70;;;9.50;99.90;;;;;;5068147;28;20251;-46